Black Watch — C6RS5 — position and weather

sailwx.info

Track history (hours):
 
Tides and Currents Weather Stations Pressure Air Temp Water Temp Dewpoint Dewpoint Depression Visibility Wind Speed Wind Dir Waves Ship Positions

Black Watch

Last reported at 2017-Oct-17 13:03 UTC. Time now 2017-Oct-18 09:19 UTC.
Position N 49°15' W 004°52'.

Length 205 m; draft 7.5 m.

Type: Passenger vessel. MMSI: 311166000.

Date/timePositionNaut miles runAvg speedWind from/ knotsBaromVisibWave heightAir tempDewpointWater temp
2017-Oct-17 13:03N 49°15' W 004°52'2915.7
2017-Oct-17 11:11N 49°28' W 004°12'817.2
2017-Oct-17 10:42N 49°33' W 004°01'617.6
2017-Oct-17 10:21N 49°36' W 003°53'1017.6
2017-Oct-17 09:45N 49°41' W 003°39'517.6
2017-Oct-17 09:28N 49°44' W 003°32'817.2
2017-Oct-17 09:00N 49°48' W 003°21'816.9
2017-Oct-17 08:30N 49°52' W 003°10'816.3
2017-Oct-17 08:00N 49°56' W 002°59'815.5
2017-Oct-17 07:30N 49°58' W 002°48'914.8
2017-Oct-17 06:54N 50°01' W 002°34'613.7
2017-Oct-17 06:30N 50°02' W 002°26'913.3
2017-Oct-17 05:49N 49°59' W 002°13'614.4
2017-Oct-17 05:24N 49°54' W 002°07'613.1
2017-Oct-17 04:56N 49°51' W 001°59'512.5
2017-Oct-17 04:30N 49°48' W 001°52'913.7
2017-Oct-17 03:50N 49°42' W 001°41'8 0.4
2017-Oct-16 07:00N 49°50' W 001°42'815.9
2017-Oct-16 06:30N 49°58' W 001°40'711.6
2017-Oct-16 05:54N 50°04' W 001°37'410.8
2017-Oct-16 05:30N 50°09' W 001°36'11 9.6
2017-Oct-16 04:23N 50°16' W 001°23'410.1
2017-Oct-16 04:00N 50°17' W 001°17'510.7
2017-Oct-16 03:30N 50°18' W 001°09'611.4
2017-Oct-16 03:00N 50°20' W 001°00'612.4
2017-Oct-16 02:29N 50°21' W 000°51'813.1
2017-Oct-16 01:55N 50°23' W 000°39'513.4
2017-Oct-16 01:30N 50°25' W 000°31'713.5
2017-Oct-16 01:00N 50°27' W 000°21'713.5
2017-Oct-16 00:30N 50°28' W 000°11'713.2
2017-Oct-16 00:00N 50°30' W 000°01'713.0
2017-Oct-15 23:30N 50°32' E 000°09'612.7
2017-Oct-15 23:01N 50°34' E 000°19'816.5
2017-Oct-15 22:31N 50°36' E 000°31'816.4
2017-Oct-15 22:01N 50°40' E 000°42'816.0
2017-Oct-15 21:30N 50°46' E 000°52'815.4
2017-Oct-15 21:01N 50°50' E 001°01'815.0
2017-Oct-15 20:30N 50°55' E 001°10'714.6
2017-Oct-15 20:00N 50°60' E 001°19'714.4
2017-Oct-15 19:30N 51°04' E 001°29'715.0
2017-Oct-15 19:01N 51°09' E 001°38'815.7
2017-Oct-15 18:30N 51°14' E 001°47'816.7
2017-Oct-15 18:01N 51°21' E 001°54'917.3
2017-Oct-15 17:30N 51°28' E 002°02'917.6
2017-Oct-15 17:01N 51°34' E 002°12'917.7
2017-Oct-15 16:30N 51°41' E 002°21'917.4
2017-Oct-15 15:59N 51°49' E 002°27'817.0
2017-Oct-15 15:30N 51°58' E 002°27'816.7
2017-Oct-15 15:00N 52°06' E 002°27'1916.1
2017-Oct-15 13:51N 52°25' E 002°27'615.4
2017-Oct-15 13:29N 52°30' E 002°27'1314.9
2017-Oct-15 12:38N 52°43' E 002°27'314.6
2017-Oct-15 12:26N 52°46' E 002°27'814.7
2017-Oct-15 11:55N 52°53' E 002°26'614.6
2017-Oct-15 11:29N 52°60' E 002°26'714.6
2017-Oct-15 11:00N 53°07' E 002°27'714.7
2017-Oct-15 10:30N 53°14' E 002°27'714.8
2017-Oct-15 10:00N 53°21' E 002°27'815.0
2017-Oct-15 09:30N 53°29' E 002°27'814.2
2017-Oct-15 08:57N 53°36' E 002°21'714.9
2017-Oct-15 08:30N 53°41' E 002°13'815.1
2017-Oct-15 08:00N 53°46' E 002°04'815.2
2017-Oct-15 07:30N 53°51' E 001°55'3715.7
2017-Oct-15 05:08N 54°18' E 001°11'215.6
2017-Oct-15 05:00N 54°20' E 001°09'1015.9
2017-Oct-15 04:21N 54°27' E 000°56'616.0
2017-Oct-15 04:00N 54°31' E 000°49'816.1
2017-Oct-15 03:30N 54°37' E 000°40'816.2
2017-Oct-15 03:00N 54°43' E 000°30'816.3
2017-Oct-15 02:30N 54°48' E 000°20'816.4
2017-Oct-15 02:00N 54°54' E 000°10'5716.9
2017-Oct-14 22:39N 55°35' W 000°59'317.0
2017-Oct-14 22:30N 55°37' W 001°02'1017.0
2017-Oct-14 21:55N 55°44' W 001°14'716.9
2017-Oct-14 21:30N 55°49' W 001°23'816.8
2017-Oct-14 21:00N 55°55' W 001°33'816.4
2017-Oct-14 20:30N 56°00' W 001°44'816.5
2017-Oct-14 20:00N 56°02' W 001°59'816.4
2017-Oct-14 19:30N 56°04' W 002°13'816.4
2017-Oct-14 19:00N 56°07' W 002°27'816.3
2017-Oct-14 18:30N 56°07' W 002°41'815.8
2017-Oct-14 18:00N 56°05' W 002°55'714.8
2017-Oct-14 17:30N 56°03' W 003°07'4 9.0
2017-Oct-14 17:00N 56°02' W 003°15'5 9.4
2017-Oct-14 16:30N 56°00' W 003°23'2 1.2
2017-Oct-14 14:54N 56°01' W 003°26'0 0.0
2017-Oct-14 14:24N 56°01' W 003°26'0 0.0
2017-Oct-14 13:48N 56°01' W 003°26'0 0.0
2017-Oct-14 13:30N 56°01' W 003°26'0 0.0
2017-Oct-14 12:54N 56°01' W 003°26'0 0.0
2017-Oct-14 12:18N 56°01' W 003°26'0 0.0
2017-Oct-14 11:57N 56°01' W 003°26'0 0.0
2017-Oct-14 11:27N 56°01' W 003°26'0 0.0
2017-Oct-14 10:57N 56°01' W 003°26'0 0.0
2017-Oct-14 10:27N 56°01' W 003°26'0 0.0
2017-Oct-14 09:48N 56°01' W 003°26'0 0.0
2017-Oct-14 09:24N 56°01' W 003°26'0 0.0
2017-Oct-14 09:00N 56°01' W 003°26'0 0.0
2017-Oct-14 08:27N 56°01' W 003°26'0 0.0
2017-Oct-14 08:00N 56°01' W 003°26'0 0.0
2017-Oct-14 07:24N 56°01' W 003°26'0 0.0
2017-Oct-14 07:00N 56°01' W 003°26'0 0.0
2017-Oct-14 06:27N 56°01' W 003°26'0 0.0
2017-Oct-14 05:57N 56°01' W 003°26'0 0.4
2017-Oct-14 05:30N 56°01' W 003°26'3 6.2
2017-Oct-14 05:01N 56°01' W 003°21'713.5
2017-Oct-14 04:31N 56°03' W 003°09'611.8
2017-Oct-14 04:00N 56°04' W 002°59'612.5
2017-Oct-14 03:30N 56°07' W 002°49'714.4
2017-Oct-14 03:00N 56°08' W 002°36'612.4
2017-Oct-14 02:30N 56°08' W 002°25'713.1
2017-Oct-14 02:01N 56°07' W 002°13'713.5
2017-Oct-14 01:30N 56°04' W 002°03'713.2
2017-Oct-14 01:00N 56°02' W 001°52'713.1
2017-Oct-14 00:30N 55°58' W 001°42'713.1
2017-Oct-14 00:00N 55°54' W 001°33'613.0
2017-Oct-13 23:30N 55°50' W 001°24'1913.8
2017-Oct-13 22:07N 55°36' W 001°01'314.6
2017-Oct-13 21:54N 55°34' W 000°57'23114.3
2017-Oct-13 05:42N 52°14' E 002°18'515.8
2017-Oct-13 05:24N 52°09' E 002°18'615.8
2017-Oct-13 05:00N 52°02' E 002°17'815.3
2017-Oct-13 04:29N 51°55' E 002°15'715.1
2017-Oct-13 04:00N 51°48' E 002°10'714.5
2017-Oct-13 03:29N 51°42' E 002°04'814.6
2017-Oct-13 02:58N 51°35' E 001°57'613.9
2017-Oct-13 02:30N 51°29' E 001°54'714.1
2017-Oct-13 02:00N 51°24' E 002°01'713.7
2017-Oct-13 01:30N 51°18' E 001°55'611.5
2017-Oct-13 01:00N 51°13' E 001°49'4 8.0
2017-Oct-13 00:31N 51°10' E 001°45'612.0
2017-Oct-13 00:01N 51°06' E 001°39'612.6
2017-Oct-12 23:31N 51°01' E 001°33'712.8
2017-Oct-12 23:00N 50°55' E 001°27'613.0
2017-Oct-12 22:30N 50°49' E 001°23'713.4
2017-Oct-12 21:59N 50°43' E 001°20'713.8
2017-Oct-12 21:30N 50°38' E 001°12'1313.7
2017-Oct-12 20:35N 50°31' E 000°57'214.1
2017-Oct-12 20:28N 50°30' E 000°54'914.2
2017-Oct-12 19:48N 50°28' E 000°40'1914.0
2017-Oct-12 18:24N 50°22' E 000°10'614.1
2017-Oct-12 18:00N 50°20' E 000°02'714.1
2017-Oct-12 17:30N 50°18' W 000°08'714.1
2017-Oct-12 17:00N 50°16' W 000°19'10716.3
2017-Oct-12 10:27N 49°48' W 002°60'716.0
2017-Oct-12 10:00N 49°45' W 003°09'815.9
2017-Oct-12 09:30N 49°41' W 003°19'915.9
2017-Oct-12 08:58N 49°36' W 003°31'715.6
2017-Oct-12 08:30N 49°33' W 003°40'815.6
2017-Oct-12 07:59N 49°29' W 003°51'713.9
2017-Oct-12 07:28N 49°25' W 004°00'511.6
2017-Oct-12 07:00N 49°22' W 004°07'714.2
2017-Oct-12 06:30N 49°18' W 004°17'815.4
2017-Oct-12 06:00N 49°14' W 004°27'915.3
2017-Oct-12 05:24N 49°09' W 004°39'915.0
2017-Oct-12 04:49N 49°05' W 004°51'514.8
2017-Oct-12 04:30N 49°02' W 004°56'714.6
2017-Oct-12 04:00N 48°58' W 005°06'714.3
2017-Oct-12 03:30N 48°54' W 005°15'714.3
2017-Oct-12 03:00N 48°50' W 005°24'714.2
2017-Oct-12 02:30N 48°46' W 005°33'813.8
2017-Oct-12 01:54N 48°40' W 005°40'614.0
2017-Oct-12 01:28N 48°34' W 005°44'612.7
2017-Oct-12 01:00N 48°28' W 005°45'713.3
2017-Oct-12 00:30N 48°23' W 005°39'713.3
2017-Oct-12 00:00N 48°18' W 005°33'613.0
2017-Oct-11 23:31N 48°13' W 005°27'713.2
2017-Oct-11 23:00N 48°08' W 005°20'613.0
2017-Oct-11 22:31N 48°03' W 005°14'612.9
2017-Oct-11 22:00N 47°59' W 005°06'713.1
2017-Oct-11 21:31N 47°56' W 004°58'713.5
2017-Oct-11 21:01N 47°52' W 004°49'713.6
2017-Oct-11 20:31N 47°49' W 004°40'713.8
2017-Oct-11 20:00N 47°46' W 004°31'714.0
2017-Oct-11 19:30N 47°42' W 004°22'814.4
2017-Oct-11 18:56N 47°38' W 004°12'1013.7
2017-Oct-11 18:15N 47°37' W 003°58'414.5
2017-Oct-11 17:59N 47°38' W 003°52'714.5
2017-Oct-11 17:30N 47°39' W 003°42'714.3
2017-Oct-11 17:01N 47°40' W 003°32'41 2.4
2017-Oct-11 00:01N 47°04' W 003°04'510.2
2017-Oct-10 23:30N 46°60' W 002°59'510.5
2017-Oct-10 23:00N 46°56' W 002°54'510.7
2017-Oct-10 22:30N 46°52' W 002°48'713.2
2017-Oct-10 22:01N 46°48' W 002°41'713.3
2017-Oct-10 21:30N 46°43' W 002°35'713.2
2017-Oct-10 21:01N 46°38' W 002°28'713.3
2017-Oct-10 20:31N 46°34' W 002°20'713.2
2017-Oct-10 20:00N 46°30' W 002°13'713.1
2017-Oct-10 19:30N 46°26' W 002°05'611.6
2017-Oct-10 19:00N 46°22' W 001°59'713.7
2017-Oct-10 18:30N 46°18' W 001°51'714.2
2017-Oct-10 18:00N 46°13' W 001°43'714.1
2017-Oct-10 17:30N 46°09' W 001°36'713.4
2017-Oct-10 17:00N 46°07' W 001°26'713.2
2017-Oct-10 16:31N 46°06' W 001°17'4 7.5
2017-Oct-10 15:58N 46°10' W 001°14'0 0.0
2017-Oct-10 15:28N 46°10' W 001°14'0 0.0
2017-Oct-10 14:52N 46°10' W 001°14'0 0.0
2017-Oct-10 14:01N 46°10' W 001°14'0 0.0
2017-Oct-10 13:31N 46°10' W 001°14'0 0.0
2017-Oct-10 13:00N 46°10' W 001°14'0 0.0
2017-Oct-10 12:30N 46°10' W 001°14'0 0.0
2017-Oct-10 12:00N 46°10' W 001°14'0 0.0
2017-Oct-10 11:31N 46°10' W 001°14'0 0.0
2017-Oct-10 11:01N 46°10' W 001°14'0 0.0
2017-Oct-10 10:30N 46°10' W 001°14'0 0.0
2017-Oct-10 10:00N 46°10' W 001°14'0 0.0
2017-Oct-10 09:30N 46°10' W 001°14'0 0.0
2017-Oct-10 09:00N 46°10' W 001°14'0 0.0
2017-Oct-10 08:30N 46°10' W 001°14'0 0.0
2017-Oct-10 08:01N 46°10' W 001°14'0 0.0
2017-Oct-10 07:30N 46°10' W 001°14'0 0.0
2017-Oct-10 07:00N 46°10' W 001°14'0 0.0
2017-Oct-10 06:31N 46°10' W 001°14'0 0.0
2017-Oct-10 06:00N 46°10' W 001°14'0 0.1
2017-Oct-10 05:31N 46°10' W 001°15'2 3.0
2017-Oct-10 05:01N 46°08' W 001°15'4 7.9
2017-Oct-10 04:30N 46°06' W 001°20'714.9
2017-Oct-10 04:00N 46°07' W 001°31'712.7
2017-Oct-10 03:28N 46°11' W 001°39'7 9.5
2017-Oct-10 02:43N 46°15' W 001°47'2 9.5
2017-Oct-10 02:30N 46°16' W 001°50'5 9.6
2017-Oct-10 02:00N 46°19' W 001°55'5 9.9
2017-Oct-10 01:30N 46°21' W 002°01'510.1
2017-Oct-10 01:00N 46°24' W 002°08'510.6
2017-Oct-10 00:30N 46°27' W 002°14'510.4
2017-Oct-10 00:00N 46°30' W 002°20'510.4
2017-Oct-09 23:30N 46°33' W 002°27'71 9.6
2017-Oct-09 16:09N 47°12' W 003°53'210.7
2017-Oct-09 15:57N 47°13' W 003°56'510.5
2017-Oct-09 15:29N 47°16' W 004°02'510.5
2017-Oct-09 15:00N 47°19' W 004°08'1810.0
2017-Oct-09 13:11N 47°29' W 004°30'2610.1
2017-Oct-09 10:39N 47°43' W 005°02'1810.7
2017-Oct-09 08:58N 47°56' W 005°20'1111.2
2017-Oct-09 07:59N 48°05' W 005°29'813.5
2017-Oct-09 07:23N 48°13' W 005°35'612.7
2017-Oct-09 06:53N 48°18' W 005°40'40 9.5
2017-Oct-09 02:39N 48°58' W 005°33'2614.0
2017-Oct-09 00:47N 49°11' W 004°59'615.2
2017-Oct-09 00:23N 49°12' W 004°50'3614.6
2017-Oct-08 21:56N 49°16' W 003°55'613.6
2017-Oct-08 21:30N 49°17' W 003°46'713.0
2017-Oct-08 20:56N 49°17' W 003°35'612.3
2017-Oct-08 20:27N 49°18' W 003°26'511.9
2017-Oct-08 20:00N 49°19' W 003°18'711.4
2017-Oct-08 19:25N 49°19' W 003°08'510.7
2017-Oct-08 18:55N 49°20' W 002°59'2011.2
2017-Oct-08 17:06N 49°26' W 002°30'1 7.2
2017-Oct-08 17:00N 49°27' W 002°30'1 0.1
2017-Oct-08 08:52N 49°28' W 002°31'0 0.1
2017-Oct-08 08:19N 49°28' W 002°31'11 4.0
2017-Oct-08 05:28N 49°26' W 002°14'7 9.5
2017-Oct-08 04:46N 49°32' W 002°10'6 9.8
2017-Oct-08 04:12N 49°37' W 002°07'314.9
2017-Oct-08 03:59N 49°40' W 002°06'814.9
2017-Oct-08 03:29N 49°48' W 002°02'6216.9
2017-Oct-07 23:49N 49°37' W 000°27'515.8
2017-Oct-07 23:30N 49°34' W 000°21'815.5
2017-Oct-07 23:00N 49°30' W 000°11'713.8
2017-Oct-07 22:31N 49°27' W 000°01'612.8
2017-Oct-07 22:01N 49°26' E 000°08'713.1
2017-Oct-07 21:30N 49°26' E 000°19'611.4
2017-Oct-07 21:00N 49°28' E 000°27'4 6.9
2017-Oct-07 20:29N 49°28' E 000°32'4 7.9
2017-Oct-07 20:00N 49°26' E 000°37'  
Track history (hours):
 
Tides and Currents Weather Stations Pressure Air Temp Water Temp Dewpoint Dewpoint Depression Visibility Wind Speed Wind Dir Waves Ship Positions

Black Watch

Last reported at 2017-Oct-17 13:03 UTC. Time now 2017-Oct-18 09:19 UTC.
Position N 49°15' W 004°52'.

Length 205 m; draft 7.5 m.

Type: Passenger vessel. MMSI: 311166000.

Date/timePositionNaut miles runAvg speedWind from/ knotsBaromVisibWave heightAir tempDewpointWater temp
2017-Oct-17 13:03N 49°15' W 004°52'2915.7
2017-Oct-17 11:11N 49°28' W 004°12'817.2
2017-Oct-17 10:42N 49°33' W 004°01'617.6
2017-Oct-17 10:21N 49°36' W 003°53'1017.6
2017-Oct-17 09:45N 49°41' W 003°39'517.6
2017-Oct-17 09:28N 49°44' W 003°32'817.2
2017-Oct-17 09:00N 49°48' W 003°21'816.9
2017-Oct-17 08:30N 49°52' W 003°10'816.3
2017-Oct-17 08:00N 49°56' W 002°59'815.5
2017-Oct-17 07:30N 49°58' W 002°48'914.8
2017-Oct-17 06:54N 50°01' W 002°34'613.7
2017-Oct-17 06:30N 50°02' W 002°26'913.3
2017-Oct-17 05:49N 49°59' W 002°13'614.4
2017-Oct-17 05:24N 49°54' W 002°07'613.1
2017-Oct-17 04:56N 49°51' W 001°59'512.5
2017-Oct-17 04:30N 49°48' W 001°52'913.7
2017-Oct-17 03:50N 49°42' W 001°41'8 0.4
2017-Oct-16 07:00N 49°50' W 001°42'815.9
2017-Oct-16 06:30N 49°58' W 001°40'711.6
2017-Oct-16 05:54N 50°04' W 001°37'410.8
2017-Oct-16 05:30N 50°09' W 001°36'11 9.6
2017-Oct-16 04:23N 50°16' W 001°23'410.1
2017-Oct-16 04:00N 50°17' W 001°17'510.7
2017-Oct-16 03:30N 50°18' W 001°09'611.4
2017-Oct-16 03:00N 50°20' W 001°00'612.4
2017-Oct-16 02:29N 50°21' W 000°51'813.1
2017-Oct-16 01:55N 50°23' W 000°39'513.4
2017-Oct-16 01:30N 50°25' W 000°31'713.5
2017-Oct-16 01:00N 50°27' W 000°21'713.5
2017-Oct-16 00:30N 50°28' W 000°11'713.2
2017-Oct-16 00:00N 50°30' W 000°01'713.0
2017-Oct-15 23:30N 50°32' E 000°09'612.7
2017-Oct-15 23:01N 50°34' E 000°19'816.5
2017-Oct-15 22:31N 50°36' E 000°31'816.4
2017-Oct-15 22:01N 50°40' E 000°42'816.0
2017-Oct-15 21:30N 50°46' E 000°52'815.4
2017-Oct-15 21:01N 50°50' E 001°01'815.0
2017-Oct-15 20:30N 50°55' E 001°10'714.6
2017-Oct-15 20:00N 50°60' E 001°19'714.4
2017-Oct-15 19:30N 51°04' E 001°29'715.0
2017-Oct-15 19:01N 51°09' E 001°38'815.7
2017-Oct-15 18:30N 51°14' E 001°47'816.7
2017-Oct-15 18:01N 51°21' E 001°54'917.3
2017-Oct-15 17:30N 51°28' E 002°02'917.6
2017-Oct-15 17:01N 51°34' E 002°12'917.7
2017-Oct-15 16:30N 51°41' E 002°21'917.4
2017-Oct-15 15:59N 51°49' E 002°27'817.0
2017-Oct-15 15:30N 51°58' E 002°27'816.7
2017-Oct-15 15:00N 52°06' E 002°27'1916.1
2017-Oct-15 13:51N 52°25' E 002°27'615.4
2017-Oct-15 13:29N 52°30' E 002°27'1314.9
2017-Oct-15 12:38N 52°43' E 002°27'314.6
2017-Oct-15 12:26N 52°46' E 002°27'814.7
2017-Oct-15 11:55N 52°53' E 002°26'614.6
2017-Oct-15 11:29N 52°60' E 002°26'714.6
2017-Oct-15 11:00N 53°07' E 002°27'714.7
2017-Oct-15 10:30N 53°14' E 002°27'714.8
2017-Oct-15 10:00N 53°21' E 002°27'815.0
2017-Oct-15 09:30N 53°29' E 002°27'814.2
2017-Oct-15 08:57N 53°36' E 002°21'714.9
2017-Oct-15 08:30N 53°41' E 002°13'815.1
2017-Oct-15 08:00N 53°46' E 002°04'815.2
2017-Oct-15 07:30N 53°51' E 001°55'3715.7
2017-Oct-15 05:08N 54°18' E 001°11'215.6
2017-Oct-15 05:00N 54°20' E 001°09'1015.9
2017-Oct-15 04:21N 54°27' E 000°56'616.0
2017-Oct-15 04:00N 54°31' E 000°49'816.1
2017-Oct-15 03:30N 54°37' E 000°40'816.2
2017-Oct-15 03:00N 54°43' E 000°30'816.3
2017-Oct-15 02:30N 54°48' E 000°20'816.4
2017-Oct-15 02:00N 54°54' E 000°10'5716.9
2017-Oct-14 22:39N 55°35' W 000°59'317.0
2017-Oct-14 22:30N 55°37' W 001°02'1017.0
2017-Oct-14 21:55N 55°44' W 001°14'716.9
2017-Oct-14 21:30N 55°49' W 001°23'816.8
2017-Oct-14 21:00N 55°55' W 001°33'816.4
2017-Oct-14 20:30N 56°00' W 001°44'816.5
2017-Oct-14 20:00N 56°02' W 001°59'816.4
2017-Oct-14 19:30N 56°04' W 002°13'816.4
2017-Oct-14 19:00N 56°07' W 002°27'816.3
2017-Oct-14 18:30N 56°07' W 002°41'815.8
2017-Oct-14 18:00N 56°05' W 002°55'714.8
2017-Oct-14 17:30N 56°03' W 003°07'4 9.0
2017-Oct-14 17:00N 56°02' W 003°15'5 9.4
2017-Oct-14 16:30N 56°00' W 003°23'2 1.2
2017-Oct-14 14:54N 56°01' W 003°26'0 0.0
2017-Oct-14 14:24N 56°01' W 003°26'0 0.0
2017-Oct-14 13:48N 56°01' W 003°26'0 0.0
2017-Oct-14 13:30N 56°01' W 003°26'0 0.0
2017-Oct-14 12:54N 56°01' W 003°26'0 0.0
2017-Oct-14 12:18N 56°01' W 003°26'0 0.0
2017-Oct-14 11:57N 56°01' W 003°26'0 0.0
2017-Oct-14 11:27N 56°01' W 003°26'0 0.0
2017-Oct-14 10:57N 56°01' W 003°26'0 0.0
2017-Oct-14 10:27N 56°01' W 003°26'0 0.0
2017-Oct-14 09:48N 56°01' W 003°26'0 0.0
2017-Oct-14 09:24N 56°01' W 003°26'0 0.0
2017-Oct-14 09:00N 56°01' W 003°26'0 0.0
2017-Oct-14 08:27N 56°01' W 003°26'0 0.0
2017-Oct-14 08:00N 56°01' W 003°26'0 0.0
2017-Oct-14 07:24N 56°01' W 003°26'0 0.0
2017-Oct-14 07:00N 56°01' W 003°26'0 0.0
2017-Oct-14 06:27N 56°01' W 003°26'0 0.0
2017-Oct-14 05:57N 56°01' W 003°26'0 0.4
2017-Oct-14 05:30N 56°01' W 003°26'3 6.2
2017-Oct-14 05:01N 56°01' W 003°21'713.5
2017-Oct-14 04:31N 56°03' W 003°09'611.8
2017-Oct-14 04:00N 56°04' W 002°59'612.5
2017-Oct-14 03:30N 56°07' W 002°49'714.4
2017-Oct-14 03:00N 56°08' W 002°36'612.4
2017-Oct-14 02:30N 56°08' W 002°25'713.1
2017-Oct-14 02:01N 56°07' W 002°13'713.5
2017-Oct-14 01:30N 56°04' W 002°03'713.2
2017-Oct-14 01:00N 56°02' W 001°52'713.1
2017-Oct-14 00:30N 55°58' W 001°42'713.1
2017-Oct-14 00:00N 55°54' W 001°33'613.0
2017-Oct-13 23:30N 55°50' W 001°24'1913.8
2017-Oct-13 22:07N 55°36' W 001°01'314.6
2017-Oct-13 21:54N 55°34' W 000°57'23114.3
2017-Oct-13 05:42N 52°14' E 002°18'515.8
2017-Oct-13 05:24N 52°09' E 002°18'615.8
2017-Oct-13 05:00N 52°02' E 002°17'815.3
2017-Oct-13 04:29N 51°55' E 002°15'715.1
2017-Oct-13 04:00N 51°48' E 002°10'714.5
2017-Oct-13 03:29N 51°42' E 002°04'814.6
2017-Oct-13 02:58N 51°35' E 001°57'613.9
2017-Oct-13 02:30N 51°29' E 001°54'714.1
2017-Oct-13 02:00N 51°24' E 002°01'713.7
2017-Oct-13 01:30N 51°18' E 001°55'611.5
2017-Oct-13 01:00N 51°13' E 001°49'4 8.0
2017-Oct-13 00:31N 51°10' E 001°45'612.0
2017-Oct-13 00:01N 51°06' E 001°39'612.6
2017-Oct-12 23:31N 51°01' E 001°33'712.8
2017-Oct-12 23:00N 50°55' E 001°27'613.0
2017-Oct-12 22:30N 50°49' E 001°23'713.4
2017-Oct-12 21:59N 50°43' E 001°20'713.8
2017-Oct-12 21:30N 50°38' E 001°12'1313.7
2017-Oct-12 20:35N 50°31' E 000°57'214.1
2017-Oct-12 20:28N 50°30' E 000°54'914.2
2017-Oct-12 19:48N 50°28' E 000°40'1914.0
2017-Oct-12 18:24N 50°22' E 000°10'614.1
2017-Oct-12 18:00N 50°20' E 000°02'714.1
2017-Oct-12 17:30N 50°18' W 000°08'714.1
2017-Oct-12 17:00N 50°16' W 000°19'10716.3
2017-Oct-12 10:27N 49°48' W 002°60'716.0
2017-Oct-12 10:00N 49°45' W 003°09'815.9
2017-Oct-12 09:30N 49°41' W 003°19'915.9
2017-Oct-12 08:58N 49°36' W 003°31'715.6
2017-Oct-12 08:30N 49°33' W 003°40'815.6
2017-Oct-12 07:59N 49°29' W 003°51'713.9
2017-Oct-12 07:28N 49°25' W 004°00'511.6
2017-Oct-12 07:00N 49°22' W 004°07'714.2
2017-Oct-12 06:30N 49°18' W 004°17'815.4
2017-Oct-12 06:00N 49°14' W 004°27'915.3
2017-Oct-12 05:24N 49°09' W 004°39'915.0
2017-Oct-12 04:49N 49°05' W 004°51'514.8
2017-Oct-12 04:30N 49°02' W 004°56'714.6
2017-Oct-12 04:00N 48°58' W 005°06'714.3
2017-Oct-12 03:30N 48°54' W 005°15'714.3
2017-Oct-12 03:00N 48°50' W 005°24'714.2
2017-Oct-12 02:30N 48°46' W 005°33'813.8
2017-Oct-12 01:54N 48°40' W 005°40'614.0
2017-Oct-12 01:28N 48°34' W 005°44'612.7
2017-Oct-12 01:00N 48°28' W 005°45'713.3
2017-Oct-12 00:30N 48°23' W 005°39'713.3
2017-Oct-12 00:00N 48°18' W 005°33'613.0
2017-Oct-11 23:31N 48°13' W 005°27'713.2
2017-Oct-11 23:00N 48°08' W 005°20'613.0
2017-Oct-11 22:31N 48°03' W 005°14'612.9
2017-Oct-11 22:00N 47°59' W 005°06'713.1
2017-Oct-11 21:31N 47°56' W 004°58'713.5
2017-Oct-11 21:01N 47°52' W 004°49'713.6
2017-Oct-11 20:31N 47°49' W 004°40'713.8
2017-Oct-11 20:00N 47°46' W 004°31'714.0
2017-Oct-11 19:30N 47°42' W 004°22'814.4
2017-Oct-11 18:56N 47°38' W 004°12'1013.7
2017-Oct-11 18:15N 47°37' W 003°58'414.5
2017-Oct-11 17:59N 47°38' W 003°52'714.5
2017-Oct-11 17:30N 47°39' W 003°42'714.3
2017-Oct-11 17:01N 47°40' W 003°32'41 2.4
2017-Oct-11 00:01N 47°04' W 003°04'510.2
2017-Oct-10 23:30N 46°60' W 002°59'510.5
2017-Oct-10 23:00N 46°56' W 002°54'510.7
2017-Oct-10 22:30N 46°52' W 002°48'713.2
2017-Oct-10 22:01N 46°48' W 002°41'713.3
2017-Oct-10 21:30N 46°43' W 002°35'713.2
2017-Oct-10 21:01N 46°38' W 002°28'713.3
2017-Oct-10 20:31N 46°34' W 002°20'713.2
2017-Oct-10 20:00N 46°30' W 002°13'713.1
2017-Oct-10 19:30N 46°26' W 002°05'611.6
2017-Oct-10 19:00N 46°22' W 001°59'713.7
2017-Oct-10 18:30N 46°18' W 001°51'714.2
2017-Oct-10 18:00N 46°13' W 001°43'714.1
2017-Oct-10 17:30N 46°09' W 001°36'713.4
2017-Oct-10 17:00N 46°07' W 001°26'713.2
2017-Oct-10 16:31N 46°06' W 001°17'4 7.5
2017-Oct-10 15:58N 46°10' W 001°14'0 0.0
2017-Oct-10 15:28N 46°10' W 001°14'0 0.0
2017-Oct-10 14:52N 46°10' W 001°14'0 0.0
2017-Oct-10 14:01N 46°10' W 001°14'0 0.0
2017-Oct-10 13:31N 46°10' W 001°14'0 0.0
2017-Oct-10 13:00N 46°10' W 001°14'0 0.0
2017-Oct-10 12:30N 46°10' W 001°14'0 0.0
2017-Oct-10 12:00N 46°10' W 001°14'0 0.0
2017-Oct-10 11:31N 46°10' W 001°14'0 0.0
2017-Oct-10 11:01N 46°10' W 001°14'0 0.0
2017-Oct-10 10:30N 46°10' W 001°14'0 0.0
2017-Oct-10 10:00N 46°10' W 001°14'0 0.0
2017-Oct-10 09:30N 46°10' W 001°14'0 0.0
2017-Oct-10 09:00N 46°10' W 001°14'0 0.0
2017-Oct-10 08:30N 46°10' W 001°14'0 0.0
2017-Oct-10 08:01N 46°10' W 001°14'0 0.0
2017-Oct-10 07:30N 46°10' W 001°14'0 0.0
2017-Oct-10 07:00N 46°10' W 001°14'0 0.0
2017-Oct-10 06:31N 46°10' W 001°14'0 0.0
2017-Oct-10 06:00N 46°10' W 001°14'0 0.1
2017-Oct-10 05:31N 46°10' W 001°15'2 3.0
2017-Oct-10 05:01N 46°08' W 001°15'4 7.9
2017-Oct-10 04:30N 46°06' W 001°20'714.9
2017-Oct-10 04:00N 46°07' W 001°31'712.7
2017-Oct-10 03:28N 46°11' W 001°39'7 9.5
2017-Oct-10 02:43N 46°15' W 001°47'2 9.5
2017-Oct-10 02:30N 46°16' W 001°50'5 9.6
2017-Oct-10 02:00N 46°19' W 001°55'5 9.9
2017-Oct-10 01:30N 46°21' W 002°01'510.1
2017-Oct-10 01:00N 46°24' W 002°08'510.6
2017-Oct-10 00:30N 46°27' W 002°14'510.4
2017-Oct-10 00:00N 46°30' W 002°20'510.4
2017-Oct-09 23:30N 46°33' W 002°27'71 9.6
2017-Oct-09 16:09N 47°12' W 003°53'210.7
2017-Oct-09 15:57N 47°13' W 003°56'510.5
2017-Oct-09 15:29N 47°16' W 004°02'510.5
2017-Oct-09 15:00N 47°19' W 004°08'1810.0
2017-Oct-09 13:11N 47°29' W 004°30'2610.1
2017-Oct-09 10:39N 47°43' W 005°02'1810.7
2017-Oct-09 08:58N 47°56' W 005°20'1111.2
2017-Oct-09 07:59N 48°05' W 005°29'813.5
2017-Oct-09 07:23N 48°13' W 005°35'612.7
2017-Oct-09 06:53N 48°18' W 005°40'40 9.5
2017-Oct-09 02:39N 48°58' W 005°33'2614.0
2017-Oct-09 00:47N 49°11' W 004°59'615.2
2017-Oct-09 00:23N 49°12' W 004°50'3614.6
2017-Oct-08 21:56N 49°16' W 003°55'613.6
2017-Oct-08 21:30N 49°17' W 003°46'713.0
2017-Oct-08 20:56N 49°17' W 003°35'612.3
2017-Oct-08 20:27N 49°18' W 003°26'511.9
2017-Oct-08 20:00N 49°19' W 003°18'711.4
2017-Oct-08 19:25N 49°19' W 003°08'510.7
2017-Oct-08 18:55N 49°20' W 002°59'2011.2
2017-Oct-08 17:06N 49°26' W 002°30'1 7.2
2017-Oct-08 17:00N 49°27' W 002°30'1 0.1
2017-Oct-08 08:52N 49°28' W 002°31'0 0.1
2017-Oct-08 08:19N 49°28' W 002°31'11 4.0
2017-Oct-08 05:28N 49°26' W 002°14'7 9.5
2017-Oct-08 04:46N 49°32' W 002°10'6 9.8
2017-Oct-08 04:12N 49°37' W 002°07'314.9
2017-Oct-08 03:59N 49°40' W 002°06'814.9
2017-Oct-08 03:29N 49°48' W 002°02'6216.9
2017-Oct-07 23:49N 49°37' W 000°27'515.8
2017-Oct-07 23:30N 49°34' W 000°21'815.5
2017-Oct-07 23:00N 49°30' W 000°11'713.8
2017-Oct-07 22:31N 49°27' W 000°01'612.8
2017-Oct-07 22:01N 49°26' E 000°08'713.1
2017-Oct-07 21:30N 49°26' E 000°19'611.4
2017-Oct-07 21:00N 49°28' E 000°27'4 6.9
2017-Oct-07 20:29N 49°28' E 000°32'4 7.9
2017-Oct-07 20:00N 49°26' E 000°37'  

Dump ship's entire track history